sensor_id;sensor_type;location;lat;lon;timestamp;P1;durP1;ratioP1;P2;durP2;ratioP2
77022;SDS011;65952;51.440;-2.054;2023-09-18T00:00:14;24.95;;;13.20;;
77022;SDS011;65952;51.440;-2.054;2023-09-18T00:02:39;23.60;;;12.38;;
77022;SDS011;65952;51.440;-2.054;2023-09-18T00:05:05;29.95;;;13.55;;
77022;SDS011;65952;51.440;-2.054;2023-09-18T00:07:30;25.20;;;12.27;;
77022;SDS011;65952;51.440;-2.054;2023-09-18T00:09:55;29.15;;;12.27;;
77022;SDS011;65952;51.440;-2.054;2023-09-18T00:12:21;29.40;;;13.15;;
77022;SDS011;65952;51.440;-2.054;2023-09-18T00:14:50;37.95;;;12.95;;
77022;SDS011;65952;51.440;-2.054;2023-09-18T00:17:16;26.98;;;11.60;;
77022;SDS011;65952;51.440;-2.054;2023-09-18T00:19:44;21.60;;;11.25;;
77022;SDS011;65952;51.440;-2.054;2023-09-18T00:22:10;21.33;;;11.55;;
77022;SDS011;65952;51.440;-2.054;2023-09-18T00:24:36;20.25;;;10.52;;
77022;SDS011;65952;51.440;-2.054;2023-09-18T00:27:02;21.63;;;10.63;;
77022;SDS011;65952;51.440;-2.054;2023-09-18T00:29:28;23.55;;;10.73;;
77022;SDS011;65952;51.440;-2.054;2023-09-18T00:31:53;23.70;;;11.32;;
77022;SDS011;65952;51.440;-2.054;2023-09-18T00:34:18;21.00;;;11.27;;
77022;SDS011;65952;51.440;-2.054;2023-09-18T00:36:44;35.33;;;12.05;;
77022;SDS011;65952;51.440;-2.054;2023-09-18T00:39:09;21.98;;;10.98;;
77022;SDS011;65952;51.440;-2.054;2023-09-18T00:41:35;20.70;;;10.82;;
77022;SDS011;65952;51.440;-2.054;2023-09-18T00:44:01;21.27;;;11.40;;
77022;SDS011;65952;51.440;-2.054;2023-09-18T00:46:26;23.65;;;12.55;;
77022;SDS011;65952;51.440;-2.054;2023-09-18T00:48:53;33.05;;;13.68;;
77022;SDS011;65952;51.440;-2.054;2023-09-18T00:51:18;47.28;;;14.95;;
77022;SDS011;65952;51.440;-2.054;2023-09-18T00:53:44;47.03;;;13.60;;
77022;SDS011;65952;51.440;-2.054;2023-09-18T00:56:13;22.83;;;12.30;;
77022;SDS011;65952;51.440;-2.054;2023-09-18T00:58:39;24.95;;;13.30;;
77022;SDS011;65952;51.440;-2.054;2023-09-18T01:01:04;24.30;;;12.52;;
77022;SDS011;65952;51.440;-2.054;2023-09-18T01:03:30;25.67;;;14.38;;
77022;SDS011;65952;51.440;-2.054;2023-09-18T01:05:55;26.77;;;13.32;;
77022;SDS011;65952;51.440;-2.054;2023-09-18T01:08:21;24.05;;;12.50;;
77022;SDS011;65952;51.440;-2.054;2023-09-18T01:10:48;25.00;;;13.25;;
77022;SDS011;65952;51.440;-2.054;2023-09-18T01:18:59;23.90;;;12.23;;
77022;SDS011;65952;51.440;-2.054;2023-09-18T01:21:27;27.63;;;14.13;;
77022;SDS011;65952;51.440;-2.054;2023-09-18T01:23:53;29.05;;;13.43;;
77022;SDS011;65952;51.440;-2.054;2023-09-18T01:26:18;24.67;;;12.70;;
77022;SDS011;65952;51.440;-2.054;2023-09-18T01:28:44;23.40;;;12.32;;
77022;SDS011;65952;51.440;-2.054;2023-09-18T01:31:09;26.48;;;12.95;;
77022;SDS011;65952;51.440;-2.054;2023-09-18T01:33:34;26.52;;;13.02;;
77022;SDS011;65952;51.440;-2.054;2023-09-18T01:36:02;22.63;;;12.73;;
77022;SDS011;65952;51.440;-2.054;2023-09-18T01:38:29;24.92;;;13.77;;
77022;SDS011;65952;51.440;-2.054;2023-09-18T01:40:55;27.35;;;13.13;;
77022;SDS011;65952;51.440;-2.054;2023-09-18T01:43:20;25.27;;;13.00;;
77022;SDS011;65952;51.440;-2.054;2023-09-18T01:45:46;27.73;;;13.25;;
77022;SDS011;65952;51.440;-2.054;2023-09-18T01:48:12;27.83;;;14.02;;
77022;SDS011;65952;51.440;-2.054;2023-09-18T01:50:38;30.67;;;15.35;;
77022;SDS011;65952;51.440;-2.054;2023-09-18T01:53:05;30.85;;;14.43;;
77022;SDS011;65952;51.440;-2.054;2023-09-18T01:55:31;30.38;;;14.73;;
77022;SDS011;65952;51.440;-2.054;2023-09-18T01:57:58;32.17;;;15.52;;
77022;SDS011;65952;51.440;-2.054;2023-09-18T02:00:23;33.22;;;15.75;;
77022;SDS011;65952;51.440;-2.054;2023-09-18T02:02:49;26.55;;;12.70;;
77022;SDS011;65952;51.440;-2.054;2023-09-18T02:05:14;32.63;;;14.07;;
77022;SDS011;65952;51.440;-2.054;2023-09-18T02:07:40;32.63;;;14.32;;
77022;SDS011;65952;51.440;-2.054;2023-09-18T02:10:05;32.80;;;15.02;;
77022;SDS011;65952;51.440;-2.054;2023-09-18T02:12:31;33.75;;;14.77;;
77022;SDS011;65952;51.440;-2.054;2023-09-18T02:14:58;35.83;;;16.45;;
77022;SDS011;65952;51.440;-2.054;2023-09-18T02:17:29;32.38;;;15.45;;
77022;SDS011;65952;51.440;-2.054;2023-09-18T02:19:55;36.08;;;15.93;;
77022;SDS011;65952;51.440;-2.054;2023-09-18T02:22:20;30.42;;;15.85;;
77022;SDS011;65952;51.440;-2.054;2023-09-18T02:24:45;30.13;;;16.13;;
77022;SDS011;65952;51.440;-2.054;2023-09-18T02:27:11;35.83;;;17.33;;
77022;SDS011;65952;51.440;-2.054;2023-09-18T02:29:37;34.30;;;17.38;;
77022;SDS011;65952;51.440;-2.054;2023-09-18T02:32:02;34.75;;;16.98;;
77022;SDS011;65952;51.440;-2.054;2023-09-18T02:34:28;33.42;;;16.35;;
77022;SDS011;65952;51.440;-2.054;2023-09-18T02:36:53;32.88;;;16.60;;
77022;SDS011;65952;51.440;-2.054;2023-09-18T02:39:19;31.10;;;14.30;;
77022;SDS011;65952;51.440;-2.054;2023-09-18T02:41:44;30.23;;;14.95;;
77022;SDS011;65952;51.440;-2.054;2023-09-18T02:44:09;28.02;;;13.80;;
77022;SDS011;65952;51.440;-2.054;2023-09-18T02:46:36;28.90;;;13.60;;
77022;SDS011;65952;51.440;-2.054;2023-09-18T02:49:02;26.98;;;14.02;;
77022;SDS011;65952;51.440;-2.054;2023-09-18T02:51:27;28.15;;;13.85;;
77022;SDS011;65952;51.440;-2.054;2023-09-18T02:53:53;25.02;;;12.93;;
77022;SDS011;65952;51.440;-2.054;2023-09-18T02:56:18;23.17;;;12.63;;
77022;SDS011;65952;51.440;-2.054;2023-09-18T02:58:43;26.52;;;13.13;;
77022;SDS011;65952;51.440;-2.054;2023-09-18T03:01:09;28.00;;;14.13;;
77022;SDS011;65952;51.440;-2.054;2023-09-18T03:03:34;25.20;;;13.60;;
77022;SDS011;65952;51.440;-2.054;2023-09-18T03:06:00;27.75;;;13.55;;
77022;SDS011;65952;51.440;-2.054;2023-09-18T03:08:27;25.70;;;13.40;;
77022;SDS011;65952;51.440;-2.054;2023-09-18T03:10:53;25.83;;;13.32;;
77022;SDS011;65952;51.440;-2.054;2023-09-18T03:13:19;27.20;;;13.02;;
77022;SDS011;65952;51.440;-2.054;2023-09-18T03:15:45;26.95;;;13.63;;
77022;SDS011;65952;51.440;-2.054;2023-09-18T03:18:12;25.92;;;13.95;;
77022;SDS011;65952;51.440;-2.054;2023-09-18T03:20:37;27.95;;;13.68;;
77022;SDS011;65952;51.440;-2.054;2023-09-18T03:23:03;26.48;;;12.75;;
77022;SDS011;65952;51.440;-2.054;2023-09-18T03:25:28;27.48;;;13.73;;
77022;SDS011;65952;51.440;-2.054;2023-09-18T03:27:55;24.15;;;13.25;;
77022;SDS011;65952;51.440;-2.054;2023-09-18T03:30:22;29.70;;;14.15;;
77022;SDS011;65952;51.440;-2.054;2023-09-18T03:32:51;27.67;;;13.73;;
77022;SDS011;65952;51.440;-2.054;2023-09-18T03:35:18;27.20;;;13.30;;
77022;SDS011;65952;51.440;-2.054;2023-09-18T03:37:47;26.23;;;13.73;;
77022;SDS011;65952;51.440;-2.054;2023-09-18T03:40:13;24.63;;;12.82;;
77022;SDS011;65952;51.440;-2.054;2023-09-18T03:42:39;22.42;;;11.93;;
77022;SDS011;65952;51.440;-2.054;2023-09-18T03:45:05;22.98;;;11.52;;
77022;SDS011;65952;51.440;-2.054;2023-09-18T03:47:31;22.15;;;11.52;;
77022;SDS011;65952;51.440;-2.054;2023-09-18T03:49:57;27.65;;;12.63;;
77022;SDS011;65952;51.440;-2.054;2023-09-18T03:52:22;25.17;;;12.55;;
77022;SDS011;65952;51.440;-2.054;2023-09-18T03:54:48;19.58;;;10.77;;
77022;SDS011;65952;51.440;-2.054;2023-09-18T03:57:14;21.85;;;11.15;;
77022;SDS011;65952;51.440;-2.054;2023-09-18T03:59:40;22.05;;;11.18;;
77022;SDS011;65952;51.440;-2.054;2023-09-18T04:02:05;17.98;;;10.57;;
77022;SDS011;65952;51.440;-2.054;2023-09-18T04:04:31;21.45;;;11.07;;
77022;SDS011;65952;51.440;-2.054;2023-09-18T04:06:57;19.05;;;10.18;;
77022;SDS011;65952;51.440;-2.054;2023-09-18T04:09:23;21.42;;;11.15;;
77022;SDS011;65952;51.440;-2.054;2023-09-18T04:11:48;18.50;;;10.27;;
77022;SDS011;65952;51.440;-2.054;2023-09-18T04:14:13;18.25;;;10.68;;
77022;SDS011;65952;51.440;-2.054;2023-09-18T04:16:39;18.50;;;10.02;;
77022;SDS011;65952;51.440;-2.054;2023-09-18T04:19:06;20.88;;;10.98;;
77022;SDS011;65952;51.440;-2.054;2023-09-18T04:21:32;21.08;;;11.25;;
77022;SDS011;65952;51.440;-2.054;2023-09-18T04:23:57;19.10;;;10.48;;
77022;SDS011;65952;51.440;-2.054;2023-09-18T04:26:24;20.35;;;10.68;;
77022;SDS011;65952;51.440;-2.054;2023-09-18T04:28:54;19.17;;;10.43;;
77022;SDS011;65952;51.440;-2.054;2023-09-18T04:31:19;21.73;;;11.20;;
77022;SDS011;65952;51.440;-2.054;2023-09-18T04:33:45;19.33;;;11.93;;
77022;SDS011;65952;51.440;-2.054;2023-09-18T04:36:10;27.95;;;12.43;;
77022;SDS011;65952;51.440;-2.054;2023-09-18T04:38:35;23.73;;;11.60;;
77022;SDS011;65952;51.440;-2.054;2023-09-18T04:41:01;25.90;;;11.65;;
77022;SDS011;65952;51.440;-2.054;2023-09-18T04:43:26;20.08;;;10.80;;
77022;SDS011;65952;51.440;-2.054;2023-09-18T04:45:51;19.15;;;9.82;;
77022;SDS011;65952;51.440;-2.054;2023-09-18T04:48:17;20.13;;;10.30;;
77022;SDS011;65952;51.440;-2.054;2023-09-18T04:50:45;17.13;;;9.10;;
77022;SDS011;65952;51.440;-2.054;2023-09-18T04:53:12;18.05;;;9.55;;
77022;SDS011;65952;51.440;-2.054;2023-09-18T04:55:38;18.13;;;9.50;;
77022;SDS011;65952;51.440;-2.054;2023-09-18T04:58:03;17.10;;;9.23;;
77022;SDS011;65952;51.440;-2.054;2023-09-18T05:00:30;16.65;;;8.88;;
77022;SDS011;65952;51.440;-2.054;2023-09-18T05:02:57;19.63;;;8.95;;
77022;SDS011;65952;51.440;-2.054;2023-09-18T05:05:26;18.10;;;8.93;;
77022;SDS011;65952;51.440;-2.054;2023-09-18T05:07:51;17.42;;;8.48;;
77022;SDS011;65952;51.440;-2.054;2023-09-18T05:10:16;15.82;;;8.88;;
77022;SDS011;65952;51.440;-2.054;2023-09-18T05:12:42;21.27;;;9.32;;
77022;SDS011;65952;51.440;-2.054;2023-09-18T05:15:08;16.80;;;8.93;;
77022;SDS011;65952;51.440;-2.054;2023-09-18T05:17:41;18.90;;;9.50;;
77022;SDS011;65952;51.440;-2.054;2023-09-18T05:20:12;22.83;;;10.63;;
77022;SDS011;65952;51.440;-2.054;2023-09-18T05:22:40;22.52;;;10.57;;
77022;SDS011;65952;51.440;-2.054;2023-09-18T05:25:07;17.70;;;9.95;;
77022;SDS011;65952;51.440;-2.054;2023-09-18T05:27:35;18.92;;;9.63;;
77022;SDS011;65952;51.440;-2.054;2023-09-18T05:30:01;20.65;;;10.18;;
77022;SDS011;65952;51.440;-2.054;2023-09-18T05:32:26;18.48;;;9.48;;
77022;SDS011;65952;51.440;-2.054;2023-09-18T05:34:51;16.90;;;9.25;;
77022;SDS011;65952;51.440;-2.054;2023-09-18T05:37:17;18.45;;;10.40;;
77022;SDS011;65952;51.440;-2.054;2023-09-18T05:39:42;17.40;;;8.98;;
77022;SDS011;65952;51.440;-2.054;2023-09-18T05:42:07;14.20;;;7.95;;
77022;SDS011;65952;51.440;-2.054;2023-09-18T05:44:33;13.93;;;7.80;;
77022;SDS011;65952;51.440;-2.054;2023-09-18T05:46:58;14.13;;;7.10;;
77022;SDS011;65952;51.440;-2.054;2023-09-18T05:49:24;13.25;;;6.30;;
77022;SDS011;65952;51.440;-2.054;2023-09-18T05:51:49;12.68;;;6.28;;
77022;SDS011;65952;51.440;-2.054;2023-09-18T05:54:14;12.60;;;6.15;;
77022;SDS011;65952;51.440;-2.054;2023-09-18T05:56:40;11.70;;;6.80;;
77022;SDS011;65952;51.440;-2.054;2023-09-18T05:59:05;13.32;;;6.35;;
77022;SDS011;65952;51.440;-2.054;2023-09-18T06:01:31;11.10;;;5.88;;
77022;SDS011;65952;51.440;-2.054;2023-09-18T06:03:57;10.77;;;6.25;;
77022;SDS011;65952;51.440;-2.054;2023-09-18T06:06:23;12.73;;;6.63;;
77022;SDS011;65952;51.440;-2.054;2023-09-18T06:08:50;11.90;;;6.47;;
77022;SDS011;65952;51.440;-2.054;2023-09-18T06:11:15;14.93;;;6.97;;
77022;SDS011;65952;51.440;-2.054;2023-09-18T06:13:41;14.43;;;7.95;;
77022;SDS011;65952;51.440;-2.054;2023-09-18T06:16:06;12.85;;;7.40;;
77022;SDS011;65952;51.440;-2.054;2023-09-18T06:18:33;13.00;;;7.53;;
77022;SDS011;65952;51.440;-2.054;2023-09-18T06:21:00;12.68;;;6.28;;
77022;SDS011;65952;51.440;-2.054;2023-09-18T06:23:25;9.35;;;5.20;;
77022;SDS011;65952;51.440;-2.054;2023-09-18T06:25:51;10.38;;;5.43;;
77022;SDS011;65952;51.440;-2.054;2023-09-18T06:28:21;11.20;;;5.28;;
77022;SDS011;65952;51.440;-2.054;2023-09-18T06:30:46;8.45;;;4.82;;
77022;SDS011;65952;51.440;-2.054;2023-09-18T06:33:12;8.63;;;4.45;;
77022;SDS011;65952;51.440;-2.054;2023-09-18T06:35:37;8.25;;;4.35;;
77022;SDS011;65952;51.440;-2.054;2023-09-18T06:38:03;9.63;;;4.15;;
77022;SDS011;65952;51.440;-2.054;2023-09-18T06:40:30;7.25;;;3.70;;
77022;SDS011;65952;51.440;-2.054;2023-09-18T06:42:59;7.30;;;3.58;;
77022;SDS011;65952;51.440;-2.054;2023-09-18T06:45:25;7.15;;;3.80;;
77022;SDS011;65952;51.440;-2.054;2023-09-18T06:47:51;5.82;;;3.30;;
77022;SDS011;65952;51.440;-2.054;2023-09-18T06:50:18;6.40;;;3.47;;
77022;SDS011;65952;51.440;-2.054;2023-09-18T06:52:44;6.82;;;3.70;;
77022;SDS011;65952;51.440;-2.054;2023-09-18T06:55:09;9.02;;;3.75;;
77022;SDS011;65952;51.440;-2.054;2023-09-18T06:57:35;7.65;;;3.78;;
77022;SDS011;65952;51.440;-2.054;2023-09-18T07:00:00;7.72;;;3.85;;
77022;SDS011;65952;51.440;-2.054;2023-09-18T07:02:26;6.47;;;4.00;;
77022;SDS011;65952;51.440;-2.054;2023-09-18T07:04:52;7.72;;;3.63;;
77022;SDS011;65952;51.440;-2.054;2023-09-18T07:07:17;7.50;;;3.92;;
77022;SDS011;65952;51.440;-2.054;2023-09-18T07:09:49;7.80;;;3.75;;
77022;SDS011;65952;51.440;-2.054;2023-09-18T07:12:15;9.18;;;4.20;;
77022;SDS011;65952;51.440;-2.054;2023-09-18T07:14:40;9.10;;;4.28;;
77022;SDS011;65952;51.440;-2.054;2023-09-18T07:17:06;6.47;;;3.50;;
77022;SDS011;65952;51.440;-2.054;2023-09-18T07:19:31;8.20;;;3.75;;
77022;SDS011;65952;51.440;-2.054;2023-09-18T07:21:57;7.18;;;4.00;;
77022;SDS011;65952;51.440;-2.054;2023-09-18T07:24:24;7.43;;;3.90;;
77022;SDS011;65952;51.440;-2.054;2023-09-18T07:26:49;8.00;;;3.80;;
77022;SDS011;65952;51.440;-2.054;2023-09-18T07:29:15;7.72;;;3.67;;
77022;SDS011;65952;51.440;-2.054;2023-09-18T07:31:41;8.57;;;4.00;;
77022;SDS011;65952;51.440;-2.054;2023-09-18T07:34:07;7.15;;;3.67;;
77022;SDS011;65952;51.440;-2.054;2023-09-18T07:36:33;8.82;;;3.95;;
77022;SDS011;65952;51.440;-2.054;2023-09-18T07:38:58;8.93;;;3.55;;
77022;SDS011;65952;51.440;-2.054;2023-09-18T07:41:24;6.80;;;3.60;;
77022;SDS011;65952;51.440;-2.054;2023-09-18T07:43:50;6.85;;;3.78;;
77022;SDS011;65952;51.440;-2.054;2023-09-18T07:46:15;7.30;;;3.55;;
77022;SDS011;65952;51.440;-2.054;2023-09-18T07:48:41;8.13;;;3.80;;
77022;SDS011;65952;51.440;-2.054;2023-09-18T07:51:06;17.33;;;4.28;;
77022;SDS011;65952;51.440;-2.054;2023-09-18T07:53:36;9.60;;;4.10;;
77022;SDS011;65952;51.440;-2.054;2023-09-18T07:56:01;8.65;;;3.70;;
77022;SDS011;65952;51.440;-2.054;2023-09-18T07:58:29;7.82;;;3.70;;
77022;SDS011;65952;51.440;-2.054;2023-09-18T08:00:57;6.90;;;3.63;;
77022;SDS011;65952;51.440;-2.054;2023-09-18T08:03:23;7.35;;;3.53;;
77022;SDS011;65952;51.440;-2.054;2023-09-18T08:05:52;10.13;;;3.70;;
77022;SDS011;65952;51.440;-2.054;2023-09-18T08:08:19;6.25;;;3.72;;
77022;SDS011;65952;51.440;-2.054;2023-09-18T08:10:46;8.40;;;4.00;;
77022;SDS011;65952;51.440;-2.054;2023-09-18T08:13:12;8.90;;;3.90;;
77022;SDS011;65952;51.440;-2.054;2023-09-18T08:15:38;8.88;;;4.20;;
77022;SDS011;65952;51.440;-2.054;2023-09-18T08:18:03;7.47;;;4.18;;
77022;SDS011;65952;51.440;-2.054;2023-09-18T08:20:29;7.15;;;4.18;;
77022;SDS011;65952;51.440;-2.054;2023-09-18T08:22:54;7.82;;;4.03;;
77022;SDS011;65952;51.440;-2.054;2023-09-18T08:25:19;10.13;;;4.50;;
77022;SDS011;65952;51.440;-2.054;2023-09-18T08:27:45;8.30;;;4.50;;
77022;SDS011;65952;51.440;-2.054;2023-09-18T08:30:12;8.65;;;3.97;;
77022;SDS011;65952;51.440;-2.054;2023-09-18T08:32:38;7.00;;;3.90;;
77022;SDS011;65952;51.440;-2.054;2023-09-18T08:35:05;9.23;;;3.42;;
77022;SDS011;65952;51.440;-2.054;2023-09-18T08:37:31;10.32;;;3.90;;
77022;SDS011;65952;51.440;-2.054;2023-09-18T08:39:56;9.57;;;3.80;;
77022;SDS011;65952;51.440;-2.054;2023-09-18T08:42:22;10.13;;;4.07;;
77022;SDS011;65952;51.440;-2.054;2023-09-18T08:44:48;7.28;;;3.55;;
77022;SDS011;65952;51.440;-2.054;2023-09-18T08:47:16;8.57;;;3.80;;
77022;SDS011;65952;51.440;-2.054;2023-09-18T08:49:43;8.10;;;3.67;;
77022;SDS011;65952;51.440;-2.054;2023-09-18T08:52:09;8.40;;;3.67;;
77022;SDS011;65952;51.440;-2.054;2023-09-18T08:54:36;7.25;;;3.58;;
77022;SDS011;65952;51.440;-2.054;2023-09-18T08:57:02;5.57;;;3.35;;
77022;SDS011;65952;51.440;-2.054;2023-09-18T08:59:32;7.75;;;3.72;;
77022;SDS011;65952;51.440;-2.054;2023-09-18T09:01:59;10.18;;;3.67;;
77022;SDS011;65952;51.440;-2.054;2023-09-18T09:04:25;5.57;;;3.20;;
77022;SDS011;65952;51.440;-2.054;2023-09-18T09:06:51;7.32;;;3.38;;
77022;SDS011;65952;51.440;-2.054;2023-09-18T09:09:16;6.82;;;3.70;;
77022;SDS011;65952;51.440;-2.054;2023-09-18T09:11:50;4.53;;;2.80;;
77022;SDS011;65952;51.440;-2.054;2023-09-18T09:14:16;7.22;;;3.00;;
77022;SDS011;65952;51.440;-2.054;2023-09-18T09:16:47;5.70;;;2.63;;
77022;SDS011;65952;51.440;-2.054;2023-09-18T09:19:15;4.93;;;3.00;;
77022;SDS011;65952;51.440;-2.054;2023-09-18T09:21:42;5.72;;;2.58;;
77022;SDS011;65952;51.440;-2.054;2023-09-18T09:24:08;4.40;;;2.50;;
77022;SDS011;65952;51.440;-2.054;2023-09-18T09:26:38;4.47;;;2.28;;
77022;SDS011;65952;51.440;-2.054;2023-09-18T09:29:14;4.72;;;2.30;;
77022;SDS011;65952;51.440;-2.054;2023-09-18T09:31:43;4.05;;;2.13;;
77022;SDS011;65952;51.440;-2.054;2023-09-18T09:34:08;4.78;;;2.22;;
77022;SDS011;65952;51.440;-2.054;2023-09-18T09:36:34;5.68;;;2.22;;
77022;SDS011;65952;51.440;-2.054;2023-09-18T09:38:59;4.35;;;2.28;;
77022;SDS011;65952;51.440;-2.054;2023-09-18T09:41:25;3.78;;;2.20;;
77022;SDS011;65952;51.440;-2.054;2023-09-18T09:43:52;4.25;;;2.28;;
77022;SDS011;65952;51.440;-2.054;2023-09-18T09:46:20;3.75;;;2.20;;
77022;SDS011;65952;51.440;-2.054;2023-09-18T09:49:03;4.78;;;2.20;;
77022;SDS011;65952;51.440;-2.054;2023-09-18T09:51:30;4.13;;;2.30;;
77022;SDS011;65952;51.440;-2.054;2023-09-18T09:53:56;4.95;;;2.20;;
77022;SDS011;65952;51.440;-2.054;2023-09-18T09:56:39;4.65;;;2.50;;
77022;SDS011;65952;51.440;-2.054;2023-09-18T09:59:08;4.45;;;2.20;;
77022;SDS011;65952;51.440;-2.054;2023-09-18T10:01:34;4.75;;;2.20;;
77022;SDS011;65952;51.440;-2.054;2023-09-18T10:04:04;5.13;;;2.38;;
77022;SDS011;65952;51.440;-2.054;2023-09-18T10:06:33;3.83;;;2.35;;
77022;SDS011;65952;51.440;-2.054;2023-09-18T10:09:00;4.20;;;2.00;;
77022;SDS011;65952;51.440;-2.054;2023-09-18T10:11:28;3.83;;;2.20;;
77022;SDS011;65952;51.440;-2.054;2023-09-18T10:14:00;4.70;;;2.30;;
77022;SDS011;65952;51.440;-2.054;2023-09-18T10:16:32;6.28;;;2.65;;
77022;SDS011;65952;51.440;-2.054;2023-09-18T10:19:14;4.38;;;2.50;;
77022;SDS011;65952;51.440;-2.054;2023-09-18T10:24:20;4.32;;;2.38;;
77022;SDS011;65952;51.440;-2.054;2023-09-18T10:26:56;4.45;;;2.30;;
77022;SDS011;65952;51.440;-2.054;2023-09-18T10:29:26;4.30;;;2.20;;
77022;SDS011;65952;51.440;-2.054;2023-09-18T10:31:53;4.05;;;2.17;;
77022;SDS011;65952;51.440;-2.054;2023-09-18T10:34:19;4.75;;;2.20;;
77022;SDS011;65952;51.440;-2.054;2023-09-18T10:36:49;5.20;;;2.25;;
77022;SDS011;65952;51.440;-2.054;2023-09-18T10:39:16;3.60;;;1.90;;
77022;SDS011;65952;51.440;-2.054;2023-09-18T10:41:48;3.65;;;1.90;;
77022;SDS011;65952;51.440;-2.054;2023-09-18T10:44:16;3.58;;;2.00;;
77022;SDS011;65952;51.440;-2.054;2023-09-18T10:46:43;3.95;;;2.15;;
77022;SDS011;65952;51.440;-2.054;2023-09-18T10:49:15;4.13;;;2.20;;
77022;SDS011;65952;51.440;-2.054;2023-09-18T10:51:41;3.25;;;2.00;;
77022;SDS011;65952;51.440;-2.054;2023-09-18T10:54:10;4.43;;;2.22;;
77022;SDS011;65952;51.440;-2.054;2023-09-18T10:56:36;6.80;;;2.15;;
77022;SDS011;65952;51.440;-2.054;2023-09-18T10:59:02;3.90;;;1.83;;
77022;SDS011;65952;51.440;-2.054;2023-09-18T11:01:31;6.10;;;2.28;;
77022;SDS011;65952;51.440;-2.054;2023-09-18T11:04:00;4.20;;;2.17;;
77022;SDS011;65952;51.440;-2.054;2023-09-18T11:06:28;4.00;;;2.00;;
77022;SDS011;65952;51.440;-2.054;2023-09-18T11:09:00;3.72;;;1.90;;
77022;SDS011;65952;51.440;-2.054;2023-09-18T11:11:29;3.67;;;1.90;;
77022;SDS011;65952;51.440;-2.054;2023-09-18T11:13:57;4.82;;;2.05;;
77022;SDS011;65952;51.440;-2.054;2023-09-18T11:21:18;3.40;;;2.05;;
77022;SDS011;65952;51.440;-2.054;2023-09-18T11:23:51;5.30;;;2.30;;
77022;SDS011;65952;51.440;-2.054;2023-09-18T11:26:23;4.15;;;2.22;;
77022;SDS011;65952;51.440;-2.054;2023-09-18T11:28:48;4.20;;;2.08;;
77022;SDS011;65952;51.440;-2.054;2023-09-18T11:31:15;5.05;;;2.88;;
77022;SDS011;65952;51.440;-2.054;2023-09-18T11:33:41;3.50;;;2.17;;
77022;SDS011;65952;51.440;-2.054;2023-09-18T11:36:15;4.28;;;2.30;;
77022;SDS011;65952;51.440;-2.054;2023-09-18T11:38:57;5.63;;;2.70;;
77022;SDS011;65952;51.440;-2.054;2023-09-18T11:41:31;4.55;;;2.90;;
77022;SDS011;65952;51.440;-2.054;2023-09-18T11:46:35;5.80;;;3.30;;
77022;SDS011;65952;51.440;-2.054;2023-09-18T11:49:04;7.13;;;3.78;;
77022;SDS011;65952;51.440;-2.054;2023-09-18T11:51:32;8.27;;;3.40;;
77022;SDS011;65952;51.440;-2.054;2023-09-18T11:53:58;4.90;;;3.35;;
77022;SDS011;65952;51.440;-2.054;2023-09-18T11:56:25;6.68;;;3.45;;
77022;SDS011;65952;51.440;-2.054;2023-09-18T11:58:51;6.05;;;3.50;;
77022;SDS011;65952;51.440;-2.054;2023-09-18T12:01:20;6.28;;;3.40;;
77022;SDS011;65952;51.440;-2.054;2023-09-18T12:03:52;6.80;;;4.03;;
77022;SDS011;65952;51.440;-2.054;2023-09-18T12:06:25;5.13;;;3.22;;
77022;SDS011;65952;51.440;-2.054;2023-09-18T12:08:51;5.65;;;3.40;;
77022;SDS011;65952;51.440;-2.054;2023-09-18T12:11:17;5.22;;;3.10;;
77022;SDS011;65952;51.440;-2.054;2023-09-18T12:13:44;5.47;;;3.10;;
77022;SDS011;65952;51.440;-2.054;2023-09-18T12:16:16;6.35;;;3.05;;
77022;SDS011;65952;51.440;-2.054;2023-09-18T12:18:47;4.50;;;2.80;;
77022;SDS011;65952;51.440;-2.054;2023-09-18T12:21:14;4.68;;;2.70;;
77022;SDS011;65952;51.440;-2.054;2023-09-18T12:23:42;4.75;;;2.95;;
77022;SDS011;65952;51.440;-2.054;2023-09-18T12:26:10;5.22;;;3.00;;
77022;SDS011;65952;51.440;-2.054;2023-09-18T12:28:38;5.25;;;2.50;;
77022;SDS011;65952;51.440;-2.054;2023-09-18T12:31:04;8.90;;;2.67;;
77022;SDS011;65952;51.440;-2.054;2023-09-18T12:33:36;4.32;;;2.22;;
77022;SDS011;65952;51.440;-2.054;2023-09-18T12:36:03;6.43;;;2.35;;
77022;SDS011;65952;51.440;-2.054;2023-09-18T12:38:30;4.68;;;2.42;;
77022;SDS011;65952;51.440;-2.054;2023-09-18T12:40:56;4.20;;;2.20;;
77022;SDS011;65952;51.440;-2.054;2023-09-18T12:43:25;4.68;;;2.10;;
77022;SDS011;65952;51.440;-2.054;2023-09-18T12:45:55;5.25;;;2.35;;
77022;SDS011;65952;51.440;-2.054;2023-09-18T12:48:21;5.20;;;2.10;;
77022;SDS011;65952;51.440;-2.054;2023-09-18T12:50:47;4.70;;;2.33;;
77022;SDS011;65952;51.440;-2.054;2023-09-18T12:53:21;5.78;;;2.17;;
77022;SDS011;65952;51.440;-2.054;2023-09-18T12:55:47;5.05;;;2.03;;
77022;SDS011;65952;51.440;-2.054;2023-09-18T12:58:18;4.60;;;2.08;;
77022;SDS011;65952;51.440;-2.054;2023-09-18T13:00:47;3.53;;;1.90;;
77022;SDS011;65952;51.440;-2.054;2023-09-18T13:03:14;4.78;;;2.25;;
77022;SDS011;65952;51.440;-2.054;2023-09-18T13:05:40;5.05;;;2.10;;
77022;SDS011;65952;51.440;-2.054;2023-09-18T13:08:05;5.30;;;2.00;;
77022;SDS011;65952;51.440;-2.054;2023-09-18T13:10:47;4.90;;;2.20;;
77022;SDS011;65952;51.440;-2.054;2023-09-18T13:13:18;3.50;;;2.10;;
77022;SDS011;65952;51.440;-2.054;2023-09-18T13:15:47;3.50;;;2.03;;
77022;SDS011;65952;51.440;-2.054;2023-09-18T13:18:13;3.70;;;2.00;;
77022;SDS011;65952;51.440;-2.054;2023-09-18T13:20:40;3.92;;;2.10;;
77022;SDS011;65952;51.440;-2.054;2023-09-18T13:23:06;4.78;;;2.00;;
77022;SDS011;65952;51.440;-2.054;2023-09-18T13:25:33;4.70;;;2.00;;
77022;SDS011;65952;51.440;-2.054;2023-09-18T13:28:01;5.80;;;1.90;;
77022;SDS011;65952;51.440;-2.054;2023-09-18T13:30:28;3.83;;;1.80;;
77022;SDS011;65952;51.440;-2.054;2023-09-18T13:33:03;4.07;;;1.95;;
77022;SDS011;65952;51.440;-2.054;2023-09-18T13:35:31;4.57;;;2.00;;
77022;SDS011;65952;51.440;-2.054;2023-09-18T13:37:57;3.85;;;2.10;;
77022;SDS011;65952;51.440;-2.054;2023-09-18T13:40:22;3.78;;;1.90;;
77022;SDS011;65952;51.440;-2.054;2023-09-18T13:42:48;3.60;;;1.80;;
77022;SDS011;65952;51.440;-2.054;2023-09-18T13:45:14;4.13;;;1.80;;
77022;SDS011;65952;51.440;-2.054;2023-09-18T13:47:41;6.30;;;1.92;;
77022;SDS011;65952;51.440;-2.054;2023-09-18T13:50:15;3.80;;;1.70;;
77022;SDS011;65952;51.440;-2.054;2023-09-18T13:52:40;2.97;;;1.70;;
77022;SDS011;65952;51.440;-2.054;2023-09-18T13:55:06;3.20;;;1.80;;
77022;SDS011;65952;51.440;-2.054;2023-09-18T13:57:34;3.38;;;1.80;;
77022;SDS011;65952;51.440;-2.054;2023-09-18T14:00:00;3.15;;;1.85;;
77022;SDS011;65952;51.440;-2.054;2023-09-18T14:02:29;4.63;;;1.80;;
77022;SDS011;65952;51.440;-2.054;2023-09-18T14:04:55;5.22;;;1.80;;
77022;SDS011;65952;51.440;-2.054;2023-09-18T14:07:20;4.32;;;1.80;;
77022;SDS011;65952;51.440;-2.054;2023-09-18T14:09:47;3.22;;;1.60;;
77022;SDS011;65952;51.440;-2.054;2023-09-18T14:12:12;6.18;;;1.90;;
77022;SDS011;65952;51.440;-2.054;2023-09-18T14:14:37;3.25;;;1.80;;
77022;SDS011;65952;51.440;-2.054;2023-09-18T14:17:05;3.45;;;1.80;;
77022;SDS011;65952;51.440;-2.054;2023-09-18T14:19:31;3.60;;;1.83;;
77022;SDS011;65952;51.440;-2.054;2023-09-18T14:21:56;4.13;;;1.90;;
77022;SDS011;65952;51.440;-2.054;2023-09-18T14:24:22;3.53;;;1.90;;
77022;SDS011;65952;51.440;-2.054;2023-09-18T14:26:51;4.28;;;1.73;;
77022;SDS011;65952;51.440;-2.054;2023-09-18T14:29:17;6.68;;;2.03;;
77022;SDS011;65952;51.440;-2.054;2023-09-18T14:31:42;5.80;;;2.08;;
77022;SDS011;65952;51.440;-2.054;2023-09-18T14:34:08;5.00;;;1.80;;
77022;SDS011;65952;51.440;-2.054;2023-09-18T14:36:34;3.63;;;2.17;;